createdAt,value
2017-08-22T00:01:34.000Z,20.9
2017-08-22T00:11:33.000Z,20.9
2017-08-22T00:21:33.000Z,20.8
2017-08-22T00:31:35.000Z,21
2017-08-22T00:41:33.000Z,20.9
2017-08-22T00:51:34.000Z,20.9
2017-08-22T01:01:33.000Z,20.8
2017-08-22T01:11:33.000Z,20.7
2017-08-22T01:21:33.000Z,20.9
2017-08-22T01:31:33.000Z,20.9
2017-08-22T01:41:33.000Z,20.9
2017-08-22T01:51:33.000Z,20.9
2017-08-22T02:01:33.000Z,20.9
2017-08-22T02:11:33.000Z,20.8
2017-08-22T02:21:33.000Z,20.7
2017-08-22T02:31:32.000Z,20.8
2017-08-22T02:41:33.000Z,20.6
2017-08-22T02:51:33.000Z,20.6
2017-08-22T03:01:33.000Z,20.7
2017-08-22T03:11:33.000Z,20.8
2017-08-22T03:21:33.000Z,20.7
2017-08-22T03:31:33.000Z,20.7
2017-08-22T03:41:33.000Z,20.7
2017-08-22T03:51:33.000Z,20.6
2017-08-22T04:01:33.000Z,20.6
2017-08-22T04:11:33.000Z,20.4
2017-08-22T04:21:33.000Z,20.4
2017-08-22T04:31:33.000Z,20.4
2017-08-22T04:41:33.000Z,20.4
2017-08-22T04:51:33.000Z,20.3
2017-08-22T05:01:33.000Z,20.2
2017-08-22T05:11:33.000Z,20.3
2017-08-22T05:21:34.000Z,20.3
2017-08-22T05:31:34.000Z,20.5
2017-08-22T05:41:34.000Z,20.4
2017-08-22T05:51:34.000Z,20.4
2017-08-22T06:01:34.000Z,20.4
2017-08-22T06:11:34.000Z,20.4
2017-08-22T06:21:34.000Z,20.6
2017-08-22T06:31:34.000Z,20.5
2017-08-22T06:41:34.000Z,20.5
2017-08-22T06:51:34.000Z,20.5
2017-08-22T07:01:34.000Z,20.7
2017-08-22T07:11:34.000Z,20.7
2017-08-22T07:21:34.000Z,20.7
2017-08-22T07:31:34.000Z,20.8
2017-08-22T07:41:34.000Z,20.8
2017-08-22T07:51:34.000Z,20.9
2017-08-22T08:01:34.000Z,21
2017-08-22T08:11:34.000Z,21
2017-08-22T08:21:34.000Z,21.2
2017-08-22T08:31:34.000Z,21.4
2017-08-22T08:41:34.000Z,21.7
2017-08-22T08:51:34.000Z,21.7
2017-08-22T09:01:34.000Z,21.8
2017-08-22T09:11:34.000Z,21.9
2017-08-22T09:21:34.000Z,22
2017-08-22T09:31:34.000Z,22
2017-08-22T09:41:34.000Z,22
2017-08-22T09:51:34.000Z,22.1
2017-08-22T10:01:34.000Z,22.2
2017-08-22T10:11:34.000Z,22.2
2017-08-22T10:21:35.000Z,22.2
2017-08-22T10:31:34.000Z,22.2
2017-08-22T10:41:34.000Z,22.4
2017-08-22T10:51:34.000Z,22.3
2017-08-22T11:01:34.000Z,22.2
2017-08-22T11:11:34.000Z,22.2
2017-08-22T11:21:34.000Z,22.2
2017-08-22T11:31:34.000Z,22.2
2017-08-22T11:41:35.000Z,22.2
2017-08-22T11:51:35.000Z,22.2
2017-08-22T12:01:35.000Z,22.2
2017-08-22T12:11:35.000Z,22.2
2017-08-22T12:21:35.000Z,22.2
2017-08-22T12:31:35.000Z,22.2
2017-08-22T12:41:35.000Z,22.2
2017-08-22T12:51:35.000Z,22.2
2017-08-22T13:01:35.000Z,22.2
2017-08-22T13:11:35.000Z,22.2
2017-08-22T13:21:35.000Z,22.2
2017-08-22T13:31:35.000Z,22.2
2017-08-22T13:41:35.000Z,22.3
2017-08-22T13:51:35.000Z,22.2
2017-08-22T14:01:35.000Z,22.2
2017-08-22T14:11:35.000Z,22.2
2017-08-22T14:21:35.000Z,22.2
2017-08-22T14:31:35.000Z,22.2
2017-08-22T14:41:35.000Z,22.3
2017-08-22T14:51:35.000Z,22.3
2017-08-22T15:01:35.000Z,22.2
2017-08-22T15:11:35.000Z,22.3
2017-08-22T15:21:35.000Z,22.3
2017-08-22T15:31:36.000Z,22.3
2017-08-22T15:41:35.000Z,22.3
2017-08-22T15:51:35.000Z,22.2
2017-08-22T16:01:35.000Z,22.3
2017-08-22T16:11:35.000Z,22.2
2017-08-22T16:21:35.000Z,22.2
2017-08-22T16:31:37.000Z,22.3
2017-08-22T16:41:35.000Z,22.3
2017-08-22T16:51:35.000Z,22.3
2017-08-22T17:01:35.000Z,22.3
2017-08-22T17:11:35.000Z,22.3
2017-08-22T17:21:35.000Z,22.3
2017-08-22T17:31:35.000Z,22.2
2017-08-22T17:41:35.000Z,22.3
2017-08-22T17:51:35.000Z,22.3
2017-08-22T18:01:35.000Z,22.3
2017-08-22T18:11:38.000Z,22.3
2017-08-22T18:21:36.000Z,22.2
2017-08-22T18:31:36.000Z,22.2
2017-08-22T18:41:36.000Z,22.2
2017-08-22T18:51:36.000Z,22.2
2017-08-22T19:01:36.000Z,22.2
2017-08-22T19:21:36.000Z,22.2
2017-08-22T19:31:36.000Z,22.1
2017-08-22T19:41:36.000Z,22
2017-08-22T19:51:36.000Z,22.1
2017-08-22T20:01:36.000Z,22
2017-08-22T20:11:36.000Z,22
2017-08-22T20:21:36.000Z,22
2017-08-22T20:31:36.000Z,22
2017-08-22T20:51:36.000Z,21.9
2017-08-22T21:01:36.000Z,21.9
2017-08-22T21:11:36.000Z,21.9
2017-08-22T21:21:36.000Z,21.9
2017-08-22T21:31:36.000Z,22
2017-08-22T21:41:36.000Z,21.9
2017-08-22T21:51:36.000Z,21.8
2017-08-22T22:01:36.000Z,21.9
2017-08-22T22:11:36.000Z,22
2017-08-22T22:21:36.000Z,21.8
2017-08-22T22:31:36.000Z,21.6
2017-08-22T22:41:36.000Z,21.4
2017-08-22T22:51:36.000Z,21.4
2017-08-22T23:01:36.000Z,21.4
2017-08-22T23:11:36.000Z,21.2
2017-08-22T23:21:36.000Z,21.3
2017-08-22T23:31:36.000Z,21.2
2017-08-22T23:41:36.000Z,21.2
2017-08-22T23:51:36.000Z,21.2
